createdAt,value
2022-11-06T00:01:08.260Z,100576.31
2022-11-06T00:06:29.791Z,100569.28
2022-11-06T00:11:32.464Z,100566.19
2022-11-06T00:16:38.073Z,100569.03
2022-11-06T00:21:42.997Z,100573.31
2022-11-06T00:26:49.853Z,100569.66
2022-11-06T00:31:57.028Z,100567.78
2022-11-06T00:36:59.636Z,100563.97
2022-11-06T00:42:02.405Z,100564.81
2022-11-06T00:47:06.398Z,100566.59
2022-11-06T00:52:09.006Z,100559.38
2022-11-06T00:57:11.685Z,100556.66
2022-11-06T01:02:17.278Z,100550.34
2022-11-06T01:07:19.996Z,100546.19
2022-11-06T01:12:22.639Z,100550.00
2022-11-06T01:17:26.536Z,100553.13
2022-11-06T01:22:29.133Z,100551.69
2022-11-06T01:27:31.802Z,100551.06
2022-11-06T01:32:36.500Z,100551.44
2022-11-06T01:37:39.075Z,100543.63
2022-11-06T01:42:41.744Z,100542.81
2022-11-06T01:47:46.248Z,100535.06
2022-11-06T01:52:50.083Z,100528.47
2022-11-06T01:57:52.995Z,100527.03
2022-11-06T02:02:57.141Z,100521.59
2022-11-06T02:08:01.173Z,100517.31
2022-11-06T02:13:24.812Z,100513.56
2022-11-06T02:18:57.137Z,100508.09
2022-11-06T02:24:24.709Z,100496.69
2022-11-06T02:29:33.348Z,100503.13
2022-11-06T02:34:37.483Z,100496.94
2022-11-06T02:39:41.852Z,100495.28
2022-11-06T02:44:49.300Z,100491.81
2022-11-06T02:49:55.345Z,100487.69
2022-11-06T02:55:06.059Z,100482.00
2022-11-06T03:00:12.543Z,100474.28
2022-11-06T03:05:18.543Z,100480.94
2022-11-06T03:10:21.705Z,100493.63
2022-11-06T03:15:31.809Z,100490.16
2022-11-06T03:20:38.349Z,100493.22
2022-11-06T03:25:45.739Z,100501.59
2022-11-06T03:30:51.500Z,100497.31
2022-11-06T03:35:58.088Z,100492.34
2022-11-06T03:41:03.752Z,100487.22
2022-11-06T03:46:12.804Z,100477.47
2022-11-06T03:51:19.378Z,100474.16
2022-11-06T03:56:25.096Z,100485.44
2022-11-06T04:01:32.831Z,100480.09
2022-11-06T04:06:38.832Z,100471.31
2022-11-06T04:12:02.266Z,100481.28
2022-11-06T04:17:08.613Z,100469.22
2022-11-06T04:22:23.491Z,100469.22
2022-11-06T04:27:34.788Z,100466.69
2022-11-06T04:33:00.121Z,100460.19
2022-11-06T04:38:05.734Z,100459.25
2022-11-06T04:43:12.785Z,100457.97
2022-11-06T04:48:17.318Z,100453.31
2022-11-06T04:53:21.137Z,100456.31
2022-11-06T04:58:23.746Z,100457.97
2022-11-06T05:03:27.739Z,100454.66
2022-11-06T05:08:30.484Z,100438.72
2022-11-06T05:13:33.115Z,100434.31
2022-11-06T05:18:37.328Z,100431.97
2022-11-06T05:23:40.149Z,100431.00
2022-11-06T05:28:42.867Z,100428.53
2022-11-06T05:33:46.777Z,100425.59
2022-11-06T05:38:49.491Z,100422.84
2022-11-06T05:43:52.487Z,100415.84
2022-11-06T05:48:56.424Z,100419.41
2022-11-06T05:53:59.001Z,100425.22
2022-11-06T05:59:01.579Z,100427.25
2022-11-06T06:04:05.791Z,100428.44
2022-11-06T06:09:08.370Z,100433.66
2022-11-06T06:14:11.035Z,100441.50
2022-11-06T06:19:15.324Z,100439.84
2022-11-06T06:24:18.208Z,100448.25
2022-11-06T06:29:20.863Z,100456.41
2022-11-06T06:34:24.790Z,100468.16
2022-11-06T06:39:27.409Z,100474.06
2022-11-06T06:44:30.175Z,100472.06
2022-11-06T06:49:35.701Z,100477.38
2022-11-06T06:54:38.645Z,100476.28
2022-11-06T06:59:41.240Z,100473.53
2022-11-06T07:04:45.230Z,100480.59
2022-11-06T07:09:47.793Z,100475.09
2022-11-06T07:14:50.574Z,100472.84
2022-11-06T07:19:54.630Z,100472.09
2022-11-06T07:24:57.291Z,100478.72
2022-11-06T07:30:00.446Z,100480.00
2022-11-06T07:35:04.690Z,100477.56
2022-11-06T07:40:09.672Z,100478.16
2022-11-06T07:45:13.382Z,100474.06
2022-11-06T07:50:17.348Z,100474.63
2022-11-06T07:55:20.174Z,100471.66
2022-11-06T08:00:22.750Z,100465.25
2022-11-06T08:05:26.724Z,100470.69
2022-11-06T08:10:29.454Z,100460.53
2022-11-06T08:15:32.293Z,100459.88
2022-11-06T08:20:36.449Z,100458.66
2022-11-06T08:25:39.190Z,100451.13
2022-11-06T08:30:41.770Z,100443.81
2022-11-06T08:35:45.715Z,100449.50
2022-11-06T08:40:53.460Z,100441.00
2022-11-06T08:45:56.612Z,100443.53
2022-11-06T08:51:00.639Z,100435.00
2022-11-06T08:56:04.149Z,100428.69
2022-11-06T09:01:07.006Z,100427.72
2022-11-06T09:06:11.047Z,100411.75
2022-11-06T09:11:13.724Z,100405.13
2022-11-06T09:16:17.456Z,100408.34
2022-11-06T09:21:21.443Z,100397.88
2022-11-06T09:26:24.054Z,100386.97
2022-11-06T09:31:26.778Z,100384.22
2022-11-06T09:36:30.747Z,100379.09
2022-11-06T09:41:42.437Z,100372.34
2022-11-06T09:46:46.692Z,100365.97
2022-11-06T09:51:53.756Z,100367.47
2022-11-06T09:57:02.346Z,100355.97
2022-11-06T10:02:19.151Z,100363.38
2022-11-06T10:07:31.496Z,100358.91
2022-11-06T10:12:43.295Z,100344.44
2022-11-06T10:17:55.068Z,100344.97
2022-11-06T10:23:04.854Z,100343.19
2022-11-06T10:28:17.110Z,100335.75
2022-11-06T10:33:37.845Z,100329.66
2022-11-06T10:38:44.210Z,100323.72
2022-11-06T10:43:50.539Z,100324.22
2022-11-06T10:48:58.151Z,100312.97
2022-11-06T10:54:10.209Z,100312.56
2022-11-06T10:59:13.094Z,100304.25
2022-11-06T11:04:15.676Z,100302.22
2022-11-06T11:09:37.340Z,100277.84
2022-11-06T11:14:40.009Z,100275.28
2022-11-06T11:19:44.015Z,100273.84
2022-11-06T11:25:00.929Z,100266.69
2022-11-06T11:30:05.735Z,100240.47
2022-11-06T11:35:12.650Z,100243.38
2022-11-06T11:40:36.071Z,100243.47
2022-11-06T11:45:38.905Z,100230.88
2022-11-06T11:50:41.499Z,100219.31
2022-11-06T11:55:46.482Z,100207.13
2022-11-06T12:00:55.685Z,100200.44
2022-11-06T12:06:06.971Z,100194.97
2022-11-06T12:11:17.391Z,100183.25
2022-11-06T12:16:21.343Z,100174.63
2022-11-06T12:21:26.283Z,100175.81
2022-11-06T12:26:33.847Z,100175.53
2022-11-06T12:31:40.111Z,100163.59
2022-11-06T12:36:46.872Z,100168.34
2022-11-06T12:41:51.284Z,100167.31
2022-11-06T12:46:58.973Z,100162.22
2022-11-06T12:52:10.677Z,100146.16
2022-11-06T12:57:22.990Z,100138.53
2022-11-06T13:02:36.381Z,100112.50
2022-11-06T13:07:52.263Z,100109.78
2022-11-06T13:13:10.304Z,100117.34
2022-11-06T13:18:21.747Z,100114.94
2022-11-06T13:23:27.921Z,100115.19
2022-11-06T13:28:34.956Z,100104.16
2022-11-06T13:33:39.886Z,100099.19
2022-11-06T13:38:46.836Z,100095.53
2022-11-06T13:43:54.147Z,100079.78
2022-11-06T13:49:08.726Z,100062.72
2022-11-06T13:54:18.959Z,100055.69
2022-11-06T13:59:59.987Z,100042.72
2022-11-06T14:05:38.395Z,100045.84
2022-11-06T14:10:50.037Z,100036.81
2022-11-06T14:16:00.339Z,100034.03
2022-11-06T14:21:42.630Z,100017.56
2022-11-06T14:26:46.750Z,100015.94
2022-11-06T14:32:02.395Z,100011.47
2022-11-06T14:37:38.592Z,100006.84
2022-11-06T14:42:43.192Z,100002.75
2022-11-06T14:47:54.793Z,99997.16
2022-11-06T14:52:59.647Z,99984.50
2022-11-06T14:58:14.633Z,99994.88
2022-11-06T15:03:24.132Z,99990.41
2022-11-06T15:09:09.663Z,99984.16
2022-11-06T15:14:49.575Z,99988.06
2022-11-06T15:20:00.387Z,99978.69
2022-11-06T15:25:07.827Z,99977.84
2022-11-06T15:30:15.919Z,99971.91
2022-11-06T15:35:22.108Z,99960.38
2022-11-06T15:40:29.807Z,99953.28
2022-11-06T15:45:32.787Z,99952.56
2022-11-06T15:50:38.030Z,99945.47
2022-11-06T15:55:45.099Z,99949.38
2022-11-06T16:00:47.682Z,99945.59
2022-11-06T16:05:52.348Z,99945.19
2022-11-06T16:10:55.757Z,99936.44
2022-11-06T16:16:00.429Z,99927.09
2022-11-06T16:21:16.574Z,99925.25
2022-11-06T16:26:23.952Z,99919.78
2022-11-06T16:31:28.955Z,99921.56
2022-11-06T16:36:53.317Z,99918.72
2022-11-06T16:42:03.312Z,99925.56
2022-11-06T16:47:18.080Z,99914.56
2022-11-06T16:52:25.690Z,99922.72
2022-11-06T16:57:30.118Z,99932.03
2022-11-06T17:02:34.429Z,99926.13
2022-11-06T17:07:39.803Z,99919.81
2022-11-06T17:12:42.485Z,99918.13
2022-11-06T17:17:45.185Z,99915.53
2022-11-06T17:22:50.781Z,99905.94
2022-11-06T17:27:54.020Z,99905.94
2022-11-06T17:32:56.625Z,99901.97
2022-11-06T17:38:06.100Z,99905.22
2022-11-06T17:43:10.504Z,99886.34
2022-11-06T17:48:13.472Z,99895.03
2022-11-06T17:53:17.421Z,99893.97
2022-11-06T17:58:20.132Z,99892.88
2022-11-06T18:03:23.615Z,99888.44
2022-11-06T18:08:29.681Z,99887.19
2022-11-06T18:13:32.549Z,99886.13
2022-11-06T18:18:35.157Z,99893.38
2022-11-06T18:23:39.315Z,99894.53
2022-11-06T18:28:41.995Z,99899.75
2022-11-06T18:33:44.601Z,99898.91
2022-11-06T18:38:48.589Z,99905.81
2022-11-06T18:43:56.605Z,99903.88
2022-11-06T18:48:59.745Z,99908.44
2022-11-06T18:54:05.600Z,99907.22
2022-11-06T18:59:09.931Z,99893.63
2022-11-06T19:04:12.779Z,99893.63
2022-11-06T19:09:16.835Z,99900.19
2022-11-06T19:14:19.512Z,99888.91
2022-11-06T19:19:25.473Z,99888.06
2022-11-06T19:24:30.142Z,99895.09
2022-11-06T19:29:32.845Z,99894.31
2022-11-06T19:34:39.221Z,99887.41
2022-11-06T19:39:43.507Z,99901.47
2022-11-06T19:44:46.193Z,99893.75
2022-11-06T19:49:48.782Z,99892.09
2022-11-06T19:55:25.815Z,99892.72
2022-11-06T20:00:16.274Z,99884.63
2022-11-06T20:05:19.068Z,99875.28
2022-11-06T20:10:23.289Z,99866.59
2022-11-06T20:15:26.141Z,99853.50
2022-11-06T20:20:34.816Z,99860.69
2022-11-06T20:25:42.456Z,99860.25
2022-11-06T20:30:45.079Z,99860.53
2022-11-06T20:35:48.015Z,99864.50
2022-11-06T20:40:55.447Z,99861.22
2022-11-06T20:46:00.276Z,99857.31
2022-11-06T20:51:05.333Z,99835.41
2022-11-06T20:56:11.896Z,99825.75
2022-11-06T21:01:17.944Z,99807.41
2022-11-06T21:06:24.302Z,99800.41
2022-11-06T21:11:28.660Z,99808.25
2022-11-06T21:16:32.806Z,99796.81
2022-11-06T21:21:37.054Z,99786.53
2022-11-06T21:26:41.247Z,99788.34
2022-11-06T21:31:49.073Z,99789.03
2022-11-06T21:36:52.144Z,99779.69
2022-11-06T21:41:56.287Z,99762.44
2022-11-06T21:46:58.836Z,99758.84
2022-11-06T21:52:26.505Z,99757.88
2022-11-06T21:57:33.098Z,99753.94
2022-11-06T22:02:35.770Z,99749.00
2022-11-06T22:07:38.470Z,99754.78
2022-11-06T22:12:42.424Z,99759.34
2022-11-06T22:17:45.380Z,99768.84
2022-11-06T22:22:47.966Z,99789.31
2022-11-06T22:27:52.050Z,99804.22
2022-11-06T22:32:54.726Z,99818.41
2022-11-06T22:37:59.622Z,99836.16
2022-11-06T22:43:03.684Z,99829.03
2022-11-06T22:48:06.651Z,99834.34
2022-11-06T22:53:14.660Z,99833.22
2022-11-06T22:58:19.055Z,99809.06
2022-11-06T23:03:22.369Z,99804.84
2022-11-06T23:08:25.028Z,99816.00
2022-11-06T23:13:29.161Z,99807.47
2022-11-06T23:18:31.851Z,99801.63
2022-11-06T23:23:34.419Z,99777.56
2022-11-06T23:28:38.392Z,99775.41
2022-11-06T23:33:41.086Z,99769.72
2022-11-06T23:38:44.790Z,99765.94
2022-11-06T23:43:51.956Z,99767.16
2022-11-06T23:48:54.702Z,99757.97
2022-11-06T23:53:57.303Z,99764.44
2022-11-06T23:59:01.229Z,99766.56
